createdAt,value
2022-11-30T00:02:30.799Z,77.62
2022-11-30T00:07:32.348Z,77.77
2022-11-30T00:12:34.209Z,77.59
2022-11-30T00:17:35.551Z,77.79
2022-11-30T00:22:36.920Z,77.70
2022-11-30T00:27:38.301Z,77.77
2022-11-30T00:32:39.661Z,78.37
2022-11-30T00:37:40.994Z,78.19
2022-11-30T00:42:42.361Z,78.08
2022-11-30T00:47:43.722Z,77.88
2022-11-30T00:52:45.075Z,77.87
2022-11-30T00:57:46.408Z,78.34
2022-11-30T01:02:47.813Z,78.42
2022-11-30T01:07:49.246Z,78.13
2022-11-30T01:12:50.697Z,78.08
2022-11-30T01:17:52.112Z,77.88
2022-11-30T01:22:55.291Z,77.94
2022-11-30T01:27:56.671Z,78.01
2022-11-30T01:33:05.568Z,77.56
2022-11-30T01:38:06.937Z,77.68
2022-11-30T01:43:11.844Z,77.71
2022-11-30T01:48:13.452Z,77.70
2022-11-30T01:53:15.004Z,77.85
2022-11-30T01:58:22.917Z,77.68
2022-11-30T02:03:38.829Z,77.47
2022-11-30T02:08:40.271Z,77.63
2022-11-30T02:13:52.253Z,77.81
2022-11-30T02:19:14.548Z,77.62
2022-11-30T02:24:27.814Z,77.57
2022-11-30T02:29:33.514Z,77.86
2022-11-30T02:34:37.052Z,77.96
2022-11-30T02:39:38.438Z,78.04
2022-11-30T02:44:42.718Z,77.99
2022-11-30T02:49:56.910Z,78.00
2022-11-30T02:55:01.010Z,78.15
2022-11-30T03:00:07.413Z,78.16
2022-11-30T03:05:09.646Z,78.22
2022-11-30T03:10:11.212Z,78.11
2022-11-30T03:15:12.577Z,78.17
2022-11-30T03:20:14.056Z,78.37
2022-11-30T03:25:15.497Z,78.18
2022-11-30T03:30:17.203Z,78.00
2022-11-30T03:35:19.227Z,78.22
2022-11-30T03:40:20.592Z,78.22
2022-11-30T03:45:22.026Z,78.12
2022-11-30T03:50:23.354Z,78.27
2022-11-30T03:55:24.693Z,78.80
2022-11-30T04:00:26.120Z,78.86
2022-11-30T04:05:29.030Z,78.79
2022-11-30T04:10:30.466Z,78.40
2022-11-30T04:15:31.844Z,78.32
2022-11-30T04:20:37.384Z,78.15
2022-11-30T04:25:41.844Z,78.25
2022-11-30T04:30:44.055Z,78.32
2022-11-30T04:35:50.643Z,78.26
2022-11-30T04:40:52.641Z,78.33
2022-11-30T04:45:54.011Z,78.02
2022-11-30T04:51:01.369Z,78.39
2022-11-30T04:56:10.486Z,78.29
2022-11-30T05:01:11.884Z,78.18
2022-11-30T05:06:13.264Z,78.12
2022-11-30T05:11:14.641Z,78.25
2022-11-30T05:16:16.055Z,78.33
2022-11-30T05:21:17.822Z,78.13
2022-11-30T05:26:19.211Z,78.27
2022-11-30T05:31:20.677Z,78.35
2022-11-30T05:36:22.391Z,78.09
2022-11-30T05:41:23.821Z,78.21
2022-11-30T05:46:25.258Z,78.21
2022-11-30T05:51:26.667Z,78.20
2022-11-30T05:56:28.098Z,78.13
2022-11-30T06:01:29.850Z,78.15
2022-11-30T06:06:31.278Z,78.38
2022-11-30T06:11:32.738Z,78.02
2022-11-30T06:16:34.277Z,78.04
2022-11-30T06:21:35.832Z,78.06
2022-11-30T06:26:37.203Z,78.05
2022-11-30T06:31:38.632Z,78.07
2022-11-30T06:36:40.025Z,78.52
2022-11-30T06:41:41.502Z,78.28
2022-11-30T06:46:42.867Z,78.11
2022-11-30T06:51:44.236Z,78.10
2022-11-30T06:56:45.607Z,78.05
2022-11-30T07:01:46.974Z,78.21
2022-11-30T07:06:48.350Z,78.09
2022-11-30T07:11:49.772Z,78.05
2022-11-30T07:16:51.757Z,78.04
2022-11-30T07:21:53.165Z,78.21
2022-11-30T07:26:54.557Z,78.25
2022-11-30T07:31:56.147Z,78.21
2022-11-30T07:36:57.595Z,78.23
2022-11-30T07:41:59.070Z,78.33
2022-11-30T07:47:01.062Z,78.22
2022-11-30T07:52:04.477Z,78.31
2022-11-30T07:57:06.394Z,78.27
2022-11-30T08:02:10.453Z,78.23
2022-11-30T08:07:11.952Z,78.44
2022-11-30T08:12:13.386Z,78.57
2022-11-30T08:17:14.762Z,78.58
2022-11-30T08:22:16.160Z,79.04
2022-11-30T08:27:17.524Z,78.88
2022-11-30T08:32:19.018Z,78.92
2022-11-30T08:37:20.385Z,78.55
2022-11-30T08:42:21.794Z,78.58
2022-11-30T08:47:23.201Z,78.16
2022-11-30T08:52:24.900Z,77.97
2022-11-30T08:57:26.828Z,77.80
2022-11-30T09:02:28.256Z,77.90
2022-11-30T09:07:29.791Z,78.21
2022-11-30T09:12:34.727Z,77.95
2022-11-30T09:17:36.627Z,78.44
2022-11-30T09:22:37.991Z,77.91
2022-11-30T09:27:39.364Z,78.26
2022-11-30T09:32:40.770Z,77.90
2022-11-30T09:37:42.206Z,77.85
2022-11-30T09:42:54.423Z,78.20
2022-11-30T09:48:24.402Z,78.34
2022-11-30T09:53:37.518Z,77.75
2022-11-30T09:58:47.476Z,77.89
2022-11-30T10:03:49.287Z,77.60
2022-11-30T10:09:06.594Z,77.95
2022-11-30T10:14:36.542Z,77.99
2022-11-30T10:20:02.078Z,77.69
2022-11-30T10:25:12.445Z,77.73
2022-11-30T10:30:17.829Z,77.72
2022-11-30T10:35:32.865Z,77.70
2022-11-30T10:41:01.477Z,77.65
2022-11-30T10:46:02.942Z,78.08
2022-11-30T10:51:04.608Z,77.62
2022-11-30T10:56:10.134Z,77.46
2022-11-30T11:01:30.302Z,77.46
2022-11-30T11:06:33.294Z,77.23
2022-11-30T11:11:39.386Z,77.13
2022-11-30T11:17:08.906Z,77.21
2022-11-30T11:22:28.141Z,76.82
2022-11-30T11:27:33.078Z,76.95
2022-11-30T11:32:35.337Z,76.73
2022-11-30T11:37:41.035Z,77.04
2022-11-30T11:42:51.524Z,76.60
2022-11-30T11:48:33.600Z,76.12
2022-11-30T11:53:50.133Z,76.23
2022-11-30T11:59:09.762Z,76.39
2022-11-30T12:04:38.976Z,75.92
2022-11-30T12:09:51.540Z,76.23
2022-11-30T12:14:55.124Z,75.79
2022-11-30T12:20:14.795Z,76.31
2022-11-30T12:25:25.302Z,75.94
2022-11-30T12:30:41.722Z,75.90
2022-11-30T12:35:52.080Z,75.95
2022-11-30T12:41:17.879Z,75.29
2022-11-30T12:46:41.023Z,75.75
2022-11-30T12:51:56.932Z,75.75
2022-11-30T12:57:13.732Z,75.51
2022-11-30T13:02:36.909Z,75.36
2022-11-30T13:08:05.505Z,75.89
2022-11-30T13:13:13.437Z,75.54
2022-11-30T13:18:18.007Z,75.35
2022-11-30T13:23:31.810Z,75.47
2022-11-30T13:28:42.413Z,75.34
2022-11-30T13:33:53.015Z,75.16
2022-11-30T13:39:21.756Z,75.28
2022-11-30T13:44:38.279Z,75.30
2022-11-30T13:49:39.819Z,75.70
2022-11-30T13:54:50.296Z,75.74
2022-11-30T13:59:56.912Z,75.81
2022-11-30T14:05:18.632Z,75.56
2022-11-30T14:10:32.212Z,75.64
2022-11-30T14:15:40.581Z,75.70
2022-11-30T14:20:57.368Z,75.55
2022-11-30T14:26:10.948Z,75.47
2022-11-30T14:31:21.065Z,75.10
2022-11-30T14:36:27.223Z,75.54
2022-11-30T14:41:30.663Z,75.45
2022-11-30T14:46:34.978Z,75.43
2022-11-30T14:51:37.665Z,75.64
2022-11-30T14:56:48.836Z,75.14
2022-11-30T15:01:59.028Z,75.53
2022-11-30T15:07:00.672Z,75.47
2022-11-30T15:12:02.121Z,75.50
2022-11-30T15:17:03.661Z,75.31
2022-11-30T15:22:05.062Z,75.62
2022-11-30T15:27:14.053Z,75.83
2022-11-30T15:32:17.704Z,75.64
2022-11-30T15:37:19.375Z,75.57
2022-11-30T15:42:30.022Z,75.80
2022-11-30T15:47:38.629Z,75.71
2022-11-30T15:52:44.608Z,76.14
2022-11-30T15:58:02.042Z,76.27
2022-11-30T16:03:10.860Z,76.27
2022-11-30T16:08:17.894Z,76.39
2022-11-30T16:13:22.334Z,76.49
2022-11-30T16:18:26.382Z,77.00
2022-11-30T16:23:28.827Z,76.62
2022-11-30T16:28:30.191Z,76.53
2022-11-30T16:33:33.313Z,76.51
2022-11-30T16:38:34.678Z,76.73
2022-11-30T16:43:39.827Z,76.64
2022-11-30T16:48:41.861Z,77.11
2022-11-30T16:53:44.511Z,77.18
2022-11-30T16:58:46.086Z,76.89
2022-11-30T17:03:50.802Z,76.66
2022-11-30T17:08:52.421Z,77.27
2022-11-30T17:13:53.909Z,77.43
2022-11-30T17:18:55.567Z,77.66
2022-11-30T17:23:58.155Z,77.10
2022-11-30T17:28:59.747Z,77.60
2022-11-30T17:34:01.462Z,77.28
2022-11-30T17:39:07.057Z,77.32
2022-11-30T17:44:09.834Z,77.71
2022-11-30T17:49:11.199Z,77.79
2022-11-30T17:54:12.734Z,77.90
2022-11-30T17:59:14.173Z,78.16
2022-11-30T18:04:16.059Z,77.82
2022-11-30T18:09:17.457Z,77.84
2022-11-30T18:14:18.793Z,77.93
2022-11-30T18:19:21.841Z,78.33
2022-11-30T18:24:25.597Z,78.45
2022-11-30T18:29:27.475Z,78.14
2022-11-30T18:34:28.985Z,78.36
2022-11-30T18:39:30.343Z,78.11
2022-11-30T18:44:31.671Z,78.27
2022-11-30T18:49:33.062Z,77.91
2022-11-30T18:54:34.500Z,78.24
2022-11-30T18:59:35.855Z,78.32
2022-11-30T19:04:37.308Z,78.32
2022-11-30T19:09:38.681Z,78.12
2022-11-30T19:14:42.712Z,77.76
2022-11-30T19:19:44.125Z,78.25
2022-11-30T19:24:45.574Z,77.88
2022-11-30T19:29:47.138Z,77.93
2022-11-30T19:34:49.469Z,77.72
2022-11-30T19:39:51.078Z,77.45
2022-11-30T19:44:52.459Z,77.47
2022-11-30T19:49:53.786Z,77.85
2022-11-30T19:54:55.113Z,77.88
2022-11-30T19:59:56.474Z,77.83
2022-11-30T20:04:57.804Z,77.57
2022-11-30T20:09:59.191Z,77.51
2022-11-30T20:15:00.549Z,77.26
2022-11-30T20:20:02.151Z,77.19
2022-11-30T20:25:03.799Z,77.33
2022-11-30T20:30:07.620Z,77.23
2022-11-30T20:35:10.275Z,77.06
2022-11-30T20:40:12.077Z,77.33
2022-11-30T20:45:13.463Z,77.36
2022-11-30T20:50:14.859Z,77.21
2022-11-30T20:55:16.197Z,77.30
2022-11-30T21:00:18.253Z,77.28
2022-11-30T21:05:19.589Z,77.34
2022-11-30T21:10:20.961Z,77.36
2022-11-30T21:15:22.308Z,77.50
2022-11-30T21:20:23.682Z,77.30
2022-11-30T21:25:25.021Z,77.42
2022-11-30T21:30:26.363Z,77.11
2022-11-30T21:35:27.756Z,77.46
2022-11-30T21:40:29.143Z,76.95
2022-11-30T21:45:30.481Z,77.19
2022-11-30T21:50:31.843Z,77.06
2022-11-30T21:55:33.718Z,77.31
2022-11-30T22:00:35.134Z,77.10
2022-11-30T22:05:36.474Z,77.18
2022-11-30T22:10:37.841Z,77.20
2022-11-30T22:15:39.219Z,77.00
2022-11-30T22:20:40.695Z,77.45
2022-11-30T22:25:42.297Z,77.24
2022-11-30T22:30:44.514Z,77.20
2022-11-30T22:35:45.933Z,77.21
2022-11-30T22:40:47.253Z,77.21
2022-11-30T22:45:48.606Z,77.05
2022-11-30T22:50:49.943Z,76.96
2022-11-30T22:55:51.381Z,77.17
2022-11-30T23:00:52.800Z,77.41
2022-11-30T23:05:54.589Z,77.38
2022-11-30T23:11:05.077Z,77.54
2022-11-30T23:16:07.287Z,77.84
2022-11-30T23:21:33.665Z,77.57
2022-11-30T23:26:39.350Z,77.51
2022-11-30T23:31:42.679Z,77.63
2022-11-30T23:36:44.637Z,77.91
2022-11-30T23:41:46.280Z,77.53
2022-11-30T23:46:48.022Z,77.60
2022-11-30T23:51:49.491Z,77.46
2022-11-30T23:56:51.360Z,77.66
